sensor_id;sensor_type;location;lat;lon;timestamp;temperature;humidity
14873;DHT22;7528;48.576;19.122;2023-09-12T00:01:14;20.40;69.00
14873;DHT22;7528;48.576;19.122;2023-09-12T00:06:17;20.40;69.00
14873;DHT22;7528;48.576;19.122;2023-09-12T00:11:19;20.30;69.50
14873;DHT22;7528;48.576;19.122;2023-09-12T00:16:23;20.30;69.70
14873;DHT22;7528;48.576;19.122;2023-09-12T00:21:25;20.20;69.70
14873;DHT22;7528;48.576;19.122;2023-09-12T00:26:27;20.20;69.60
14873;DHT22;7528;48.576;19.122;2023-09-12T00:31:33;20.10;69.50
14873;DHT22;7528;48.576;19.122;2023-09-12T00:36:35;20.10;69.50
14873;DHT22;7528;48.576;19.122;2023-09-12T00:41:38;20.00;69.60
14873;DHT22;7528;48.576;19.122;2023-09-12T00:46:43;20.00;69.80
14873;DHT22;7528;48.576;19.122;2023-09-12T00:51:48;19.90;70.20
14873;DHT22;7528;48.576;19.122;2023-09-12T00:56:51;19.80;70.50
14873;DHT22;7528;48.576;19.122;2023-09-12T01:01:55;19.80;70.30
14873;DHT22;7528;48.576;19.122;2023-09-12T01:06:58;19.70;70.30
14873;DHT22;7528;48.576;19.122;2023-09-12T01:12:01;19.70;70.30
14873;DHT22;7528;48.576;19.122;2023-09-12T01:17:05;19.60;70.40
14873;DHT22;7528;48.576;19.122;2023-09-12T01:22:32;19.60;70.40
14873;DHT22;7528;48.576;19.122;2023-09-12T01:27:42;19.50;70.90
14873;DHT22;7528;48.576;19.122;2023-09-12T01:32:47;19.40;70.70
14873;DHT22;7528;48.576;19.122;2023-09-12T01:37:49;19.40;71.60
14873;DHT22;7528;48.576;19.122;2023-09-12T01:42:54;19.30;70.80
14873;DHT22;7528;48.576;19.122;2023-09-12T01:47:58;19.30;71.00
14873;DHT22;7528;48.576;19.122;2023-09-12T01:53:02;19.20;71.00
14873;DHT22;7528;48.576;19.122;2023-09-12T01:58:06;19.20;71.10
14873;DHT22;7528;48.576;19.122;2023-09-12T02:03:09;19.10;70.90
14873;DHT22;7528;48.576;19.122;2023-09-12T02:08:11;19.10;71.10
14873;DHT22;7528;48.576;19.122;2023-09-12T02:13:15;19.00;71.30
14873;DHT22;7528;48.576;19.122;2023-09-12T02:18:17;19.00;71.40
14873;DHT22;7528;48.576;19.122;2023-09-12T02:23:20;19.00;71.30
14873;DHT22;7528;48.576;19.122;2023-09-12T02:28:23;18.90;71.40
14873;DHT22;7528;48.576;19.122;2023-09-12T02:33:26;18.90;71.80
14873;DHT22;7528;48.576;19.122;2023-09-12T02:38:29;18.90;71.50
14873;DHT22;7528;48.576;19.122;2023-09-12T02:43:32;18.80;71.90
14873;DHT22;7528;48.576;19.122;2023-09-12T02:48:35;18.80;72.10
14873;DHT22;7528;48.576;19.122;2023-09-12T02:53:37;18.70;71.80
14873;DHT22;7528;48.576;19.122;2023-09-12T02:58:41;18.70;71.90
14873;DHT22;7528;48.576;19.122;2023-09-12T03:03:45;18.60;72.10
14873;DHT22;7528;48.576;19.122;2023-09-12T03:08:49;18.60;71.90
14873;DHT22;7528;48.576;19.122;2023-09-12T03:13:53;18.50;71.60
14873;DHT22;7528;48.576;19.122;2023-09-12T03:18:56;18.50;71.70
14873;DHT22;7528;48.576;19.122;2023-09-12T03:23:58;18.50;71.90
14873;DHT22;7528;48.576;19.122;2023-09-12T03:29:02;18.40;71.90
14873;DHT22;7528;48.576;19.122;2023-09-12T03:34:05;18.40;71.90
14873;DHT22;7528;48.576;19.122;2023-09-12T03:39:07;18.30;72.00
14873;DHT22;7528;48.576;19.122;2023-09-12T03:44:11;18.30;72.20
14873;DHT22;7528;48.576;19.122;2023-09-12T03:49:14;18.20;72.20
14873;DHT22;7528;48.576;19.122;2023-09-12T03:54:16;18.20;72.40
14873;DHT22;7528;48.576;19.122;2023-09-12T03:59:20;18.20;72.00
14873;DHT22;7528;48.576;19.122;2023-09-12T04:04:22;18.10;72.70
14873;DHT22;7528;48.576;19.122;2023-09-12T04:09:25;18.00;72.70
14873;DHT22;7528;48.576;19.122;2023-09-12T04:14:30;18.00;72.60
14873;DHT22;7528;48.576;19.122;2023-09-12T04:19:32;17.90;72.60
14873;DHT22;7528;48.576;19.122;2023-09-12T04:24:35;17.90;72.90
14873;DHT22;7528;48.576;19.122;2023-09-12T04:29:38;17.90;72.90
14873;DHT22;7528;48.576;19.122;2023-09-12T04:34:42;17.90;72.70
14873;DHT22;7528;48.576;19.122;2023-09-12T04:39:45;17.90;72.90
14873;DHT22;7528;48.576;19.122;2023-09-12T04:44:49;17.90;73.00
14873;DHT22;7528;48.576;19.122;2023-09-12T04:49:52;17.90;73.30
14873;DHT22;7528;48.576;19.122;2023-09-12T04:54:54;17.90;73.50
14873;DHT22;7528;48.576;19.122;2023-09-12T04:59:58;17.90;73.50
14873;DHT22;7528;48.576;19.122;2023-09-12T05:05:00;18.00;73.70
14873;DHT22;7528;48.576;19.122;2023-09-12T05:10:04;17.90;73.40
14873;DHT22;7528;48.576;19.122;2023-09-12T05:15:09;18.00;73.50
14873;DHT22;7528;48.576;19.122;2023-09-12T05:20:11;18.00;73.50
14873;DHT22;7528;48.576;19.122;2023-09-12T05:25:14;18.10;73.70
14873;DHT22;7528;48.576;19.122;2023-09-12T05:30:18;18.10;73.70
14873;DHT22;7528;48.576;19.122;2023-09-12T05:35:20;18.20;74.10
14873;DHT22;7528;48.576;19.122;2023-09-12T05:40:24;18.20;74.10
14873;DHT22;7528;48.576;19.122;2023-09-12T05:45:28;18.40;74.60
14873;DHT22;7528;48.576;19.122;2023-09-12T05:50:32;18.30;74.80
14873;DHT22;7528;48.576;19.122;2023-09-12T05:55:34;18.40;75.20
14873;DHT22;7528;48.576;19.122;2023-09-12T06:00:38;18.50;75.40
14873;DHT22;7528;48.576;19.122;2023-09-12T06:05:41;18.60;75.70
14873;DHT22;7528;48.576;19.122;2023-09-12T06:10:43;18.70;75.60
14873;DHT22;7528;48.576;19.122;2023-09-12T06:15:47;18.90;75.60
14873;DHT22;7528;48.576;19.122;2023-09-12T06:20:49;19.00;75.70
14873;DHT22;7528;48.576;19.122;2023-09-12T06:25:53;19.20;76.10
14873;DHT22;7528;48.576;19.122;2023-09-12T06:30:57;19.30;75.80
14873;DHT22;7528;48.576;19.122;2023-09-12T06:35:59;19.40;76.00
14873;DHT22;7528;48.576;19.122;2023-09-12T06:41:01;19.60;76.10
14873;DHT22;7528;48.576;19.122;2023-09-12T06:46:06;19.80;76.10
14873;DHT22;7528;48.576;19.122;2023-09-12T06:51:09;19.90;76.10
14873;DHT22;7528;48.576;19.122;2023-09-12T06:56:11;20.10;75.90
14873;DHT22;7528;48.576;19.122;2023-09-12T07:01:15;20.30;74.40
14873;DHT22;7528;48.576;19.122;2023-09-12T07:06:17;20.70;73.90
14873;DHT22;7528;48.576;19.122;2023-09-12T07:11:20;21.30;71.50
14873;DHT22;7528;48.576;19.122;2023-09-12T07:16:24;22.10;68.40
14873;DHT22;7528;48.576;19.122;2023-09-12T07:21:26;22.80;66.20
14873;DHT22;7528;48.576;19.122;2023-09-12T07:26:29;23.40;64.20
14873;DHT22;7528;48.576;19.122;2023-09-12T07:31:33;24.10;61.70
14873;DHT22;7528;48.576;19.122;2023-09-12T07:36:35;24.70;59.60
14873;DHT22;7528;48.576;19.122;2023-09-12T07:41:37;25.10;58.30
14873;DHT22;7528;48.576;19.122;2023-09-12T07:46:41;25.60;56.90
14873;DHT22;7528;48.576;19.122;2023-09-12T07:51:43;26.00;57.50
14873;DHT22;7528;48.576;19.122;2023-09-12T07:56:46;26.40;55.40
14873;DHT22;7528;48.576;19.122;2023-09-12T08:01:49;26.80;54.30
14873;DHT22;7528;48.576;19.122;2023-09-12T08:06:52;27.20;53.80
14873;DHT22;7528;48.576;19.122;2023-09-12T08:11:54;27.70;52.90
14873;DHT22;7528;48.576;19.122;2023-09-12T08:16:58;28.30;50.80
14873;DHT22;7528;48.576;19.122;2023-09-12T08:22:00;28.70;49.50
14873;DHT22;7528;48.576;19.122;2023-09-12T08:27:03;29.20;49.10
14873;DHT22;7528;48.576;19.122;2023-09-12T08:32:08;29.70;48.30
14873;DHT22;7528;48.576;19.122;2023-09-12T08:37:10;30.10;47.80
14873;DHT22;7528;48.576;19.122;2023-09-12T08:42:14;30.70;46.50
14873;DHT22;7528;48.576;19.122;2023-09-12T08:47:19;31.10;46.80
14873;DHT22;7528;48.576;19.122;2023-09-12T08:52:24;31.60;44.40
14873;DHT22;7528;48.576;19.122;2023-09-12T08:57:27;32.10;42.80
14873;DHT22;7528;48.576;19.122;2023-09-12T09:02:32;32.50;43.00
14873;DHT22;7528;48.576;19.122;2023-09-12T09:07:36;32.80;41.40
14873;DHT22;7528;48.576;19.122;2023-09-12T09:12:40;33.20;41.70
14873;DHT22;7528;48.576;19.122;2023-09-12T09:17:44;33.70;41.50
14873;DHT22;7528;48.576;19.122;2023-09-12T09:22:56;34.20;39.40
14873;DHT22;7528;48.576;19.122;2023-09-12T09:28:01;34.50;38.80
14873;DHT22;7528;48.576;19.122;2023-09-12T09:33:06;34.80;37.10
14873;DHT22;7528;48.576;19.122;2023-09-12T09:38:08;35.20;36.30
14873;DHT22;7528;48.576;19.122;2023-09-12T09:43:11;35.50;36.50
14873;DHT22;7528;48.576;19.122;2023-09-12T09:48:23;35.90;36.40
14873;DHT22;7528;48.576;19.122;2023-09-12T09:53:27;36.20;36.20
14873;DHT22;7528;48.576;19.122;2023-09-12T09:58:29;36.50;35.80
14873;DHT22;7528;48.576;19.122;2023-09-12T10:03:36;36.60;35.60
14873;DHT22;7528;48.576;19.122;2023-09-12T10:08:39;36.80;35.00
14873;DHT22;7528;48.576;19.122;2023-09-12T10:13:46;37.00;35.20
14873;DHT22;7528;48.576;19.122;2023-09-12T10:18:58;37.20;34.40
14873;DHT22;7528;48.576;19.122;2023-09-12T10:24:03;37.30;33.60
14873;DHT22;7528;48.576;19.122;2023-09-12T10:29:05;37.40;34.10
14873;DHT22;7528;48.576;19.122;2023-09-12T10:34:11;37.50;33.30
14873;DHT22;7528;48.576;19.122;2023-09-12T10:39:15;37.80;32.40
14873;DHT22;7528;48.576;19.122;2023-09-12T10:44:18;37.90;33.20
14873;DHT22;7528;48.576;19.122;2023-09-12T10:49:23;38.40;32.20
14873;DHT22;7528;48.576;19.122;2023-09-12T10:54:35;38.60;32.30
14873;DHT22;7528;48.576;19.122;2023-09-12T11:00:11;38.90;30.90
14873;DHT22;7528;48.576;19.122;2023-09-12T11:05:37;38.80;31.00
14873;DHT22;7528;48.576;19.122;2023-09-12T11:10:40;38.80;30.40
14873;DHT22;7528;48.576;19.122;2023-09-12T11:16:11;38.90;31.40
14873;DHT22;7528;48.576;19.122;2023-09-12T11:21:31;39.10;31.40
14873;DHT22;7528;48.576;19.122;2023-09-12T11:26:34;39.10;30.00
14873;DHT22;7528;48.576;19.122;2023-09-12T11:31:37;39.10;29.90
14873;DHT22;7528;48.576;19.122;2023-09-12T11:36:46;39.00;30.80
14873;DHT22;7528;48.576;19.122;2023-09-12T11:41:48;39.00;30.30
14873;DHT22;7528;48.576;19.122;2023-09-12T11:46:52;39.10;30.00
14873;DHT22;7528;48.576;19.122;2023-09-12T11:51:57;39.00;30.10
14873;DHT22;7528;48.576;19.122;2023-09-12T11:56:59;39.10;29.60
14873;DHT22;7528;48.576;19.122;2023-09-12T12:02:06;39.20;30.00
14873;DHT22;7528;48.576;19.122;2023-09-12T12:07:11;39.10;29.10
14873;DHT22;7528;48.576;19.122;2023-09-12T12:12:14;39.00;28.10
14873;DHT22;7528;48.576;19.122;2023-09-12T12:17:17;38.90;27.80
14873;DHT22;7528;48.576;19.122;2023-09-12T12:22:20;38.80;29.20
14873;DHT22;7528;48.576;19.122;2023-09-12T12:27:23;38.70;28.40
14873;DHT22;7528;48.576;19.122;2023-09-12T12:32:25;38.40;27.70
14873;DHT22;7528;48.576;19.122;2023-09-12T12:37:30;38.10;28.70
14873;DHT22;7528;48.576;19.122;2023-09-12T12:42:37;37.90;28.70
14873;DHT22;7528;48.576;19.122;2023-09-12T12:47:40;37.60;29.20
14873;DHT22;7528;48.576;19.122;2023-09-12T12:52:46;37.50;28.70
14873;DHT22;7528;48.576;19.122;2023-09-12T12:57:49;37.40;27.30
14873;DHT22;7528;48.576;19.122;2023-09-12T13:02:51;37.30;27.80
14873;DHT22;7528;48.576;19.122;2023-09-12T13:07:55;37.30;29.20
14873;DHT22;7528;48.576;19.122;2023-09-12T13:12:58;37.40;29.20
14873;DHT22;7528;48.576;19.122;2023-09-12T13:18:00;37.50;28.80
14873;DHT22;7528;48.576;19.122;2023-09-12T13:23:06;37.40;28.60
14873;DHT22;7528;48.576;19.122;2023-09-12T13:28:08;37.40;28.20
14873;DHT22;7528;48.576;19.122;2023-09-12T13:33:11;37.30;27.90
14873;DHT22;7528;48.576;19.122;2023-09-12T13:38:16;36.90;27.70
14873;DHT22;7528;48.576;19.122;2023-09-12T13:43:19;36.70;28.10
14873;DHT22;7528;48.576;19.122;2023-09-12T13:48:23;36.50;28.20
14873;DHT22;7528;48.576;19.122;2023-09-12T13:53:28;36.20;28.50
14873;DHT22;7528;48.576;19.122;2023-09-12T13:58:30;36.20;29.30
14873;DHT22;7528;48.576;19.122;2023-09-12T14:03:33;36.20;27.70
14873;DHT22;7528;48.576;19.122;2023-09-12T14:08:37;36.00;27.20
14873;DHT22;7528;48.576;19.122;2023-09-12T14:13:40;35.70;28.70
14873;DHT22;7528;48.576;19.122;2023-09-12T14:18:45;35.70;30.00
14873;DHT22;7528;48.576;19.122;2023-09-12T14:23:49;35.70;30.00
14873;DHT22;7528;48.576;19.122;2023-09-12T14:28:52;35.80;30.20
14873;DHT22;7528;48.576;19.122;2023-09-12T14:33:54;35.80;31.00
14873;DHT22;7528;48.576;19.122;2023-09-12T14:38:59;35.70;29.90
14873;DHT22;7528;48.576;19.122;2023-09-12T14:44:01;35.50;30.80
14873;DHT22;7528;48.576;19.122;2023-09-12T14:49:04;35.30;31.20
14873;DHT22;7528;48.576;19.122;2023-09-12T14:54:08;35.20;30.60
14873;DHT22;7528;48.576;19.122;2023-09-12T14:59:10;34.90;31.10
14873;DHT22;7528;48.576;19.122;2023-09-12T15:04:14;34.80;32.20
14873;DHT22;7528;48.576;19.122;2023-09-12T15:09:18;34.70;30.80
14873;DHT22;7528;48.576;19.122;2023-09-12T15:14:20;34.60;32.30
14873;DHT22;7528;48.576;19.122;2023-09-12T15:24:39;34.40;33.30
14873;DHT22;7528;48.576;19.122;2023-09-12T15:29:41;34.30;32.30
14873;DHT22;7528;48.576;19.122;2023-09-12T15:40:17;33.90;32.50
14873;DHT22;7528;48.576;19.122;2023-09-12T15:45:19;33.70;33.70
14873;DHT22;7528;48.576;19.122;2023-09-12T15:50:21;33.50;34.40
14873;DHT22;7528;48.576;19.122;2023-09-12T15:55:29;33.40;34.50
14873;DHT22;7528;48.576;19.122;2023-09-12T16:00:31;33.20;34.60
14873;DHT22;7528;48.576;19.122;2023-09-12T16:05:33;33.00;35.60
14873;DHT22;7528;48.576;19.122;2023-09-12T16:10:37;32.90;35.80
14873;DHT22;7528;48.576;19.122;2023-09-12T16:15:40;32.80;36.40
14873;DHT22;7528;48.576;19.122;2023-09-12T16:20:42;32.60;37.30
14873;DHT22;7528;48.576;19.122;2023-09-12T16:25:46;32.30;38.40
14873;DHT22;7528;48.576;19.122;2023-09-12T16:30:51;32.20;38.40
14873;DHT22;7528;48.576;19.122;2023-09-12T16:35:54;31.90;39.40
14873;DHT22;7528;48.576;19.122;2023-09-12T16:40:58;31.70;40.10
14873;DHT22;7528;48.576;19.122;2023-09-12T16:46:00;31.40;40.30
14873;DHT22;7528;48.576;19.122;2023-09-12T16:51:03;31.20;40.40
14873;DHT22;7528;48.576;19.122;2023-09-12T16:56:08;31.00;40.70
14873;DHT22;7528;48.576;19.122;2023-09-12T17:01:12;30.70;42.40
14873;DHT22;7528;48.576;19.122;2023-09-12T17:06:15;30.50;43.10
14873;DHT22;7528;48.576;19.122;2023-09-12T17:11:19;30.20;43.70
14873;DHT22;7528;48.576;19.122;2023-09-12T17:16:23;30.10;44.40
14873;DHT22;7528;48.576;19.122;2023-09-12T17:21:25;29.80;44.30
14873;DHT22;7528;48.576;19.122;2023-09-12T17:26:29;29.60;45.20
14873;DHT22;7528;48.576;19.122;2023-09-12T17:31:32;29.40;46.10
14873;DHT22;7528;48.576;19.122;2023-09-12T17:36:34;29.20;46.60
14873;DHT22;7528;48.576;19.122;2023-09-12T17:41:39;29.00;46.90
14873;DHT22;7528;48.576;19.122;2023-09-12T17:46:41;28.80;47.50
14873;DHT22;7528;48.576;19.122;2023-09-12T17:51:44;28.60;48.40
14873;DHT22;7528;48.576;19.122;2023-09-12T17:56:48;28.40;48.10
14873;DHT22;7528;48.576;19.122;2023-09-12T18:01:50;28.20;48.70
14873;DHT22;7528;48.576;19.122;2023-09-12T18:06:53;28.10;49.00
14873;DHT22;7528;48.576;19.122;2023-09-12T18:11:57;27.90;49.00
14873;DHT22;7528;48.576;19.122;2023-09-12T18:16:59;27.70;49.50
14873;DHT22;7528;48.576;19.122;2023-09-12T18:22:02;27.60;49.90
14873;DHT22;7528;48.576;19.122;2023-09-12T18:27:07;27.40;51.20
14873;DHT22;7528;48.576;19.122;2023-09-12T18:32:09;27.30;51.60
14873;DHT22;7528;48.576;19.122;2023-09-12T18:37:12;27.10;51.90
14873;DHT22;7528;48.576;19.122;2023-09-12T18:42:16;27.00;52.10
14873;DHT22;7528;48.576;19.122;2023-09-12T18:47:18;26.80;52.10
14873;DHT22;7528;48.576;19.122;2023-09-12T18:52:21;26.70;51.90
14873;DHT22;7528;48.576;19.122;2023-09-12T18:57:25;26.50;53.70
14873;DHT22;7528;48.576;19.122;2023-09-12T19:02:28;26.40;54.20
14873;DHT22;7528;48.576;19.122;2023-09-12T19:07:30;26.30;54.30
14873;DHT22;7528;48.576;19.122;2023-09-12T19:12:34;26.20;54.30
14873;DHT22;7528;48.576;19.122;2023-09-12T19:17:36;26.00;54.10
14873;DHT22;7528;48.576;19.122;2023-09-12T19:22:38;25.80;53.60
14873;DHT22;7528;48.576;19.122;2023-09-12T19:27:42;25.70;53.30
14873;DHT22;7528;48.576;19.122;2023-09-12T19:32:45;25.60;53.70
14873;DHT22;7528;48.576;19.122;2023-09-12T19:43:05;25.30;55.70
14873;DHT22;7528;48.576;19.122;2023-09-12T19:48:08;25.20;56.10
14873;DHT22;7528;48.576;19.122;2023-09-12T19:53:12;25.10;56.30
14873;DHT22;7528;48.576;19.122;2023-09-12T19:58:18;25.00;56.80
14873;DHT22;7528;48.576;19.122;2023-09-12T20:03:21;24.90;56.80
14873;DHT22;7528;48.576;19.122;2023-09-12T20:08:23;24.80;56.80
14873;DHT22;7528;48.576;19.122;2023-09-12T20:13:28;24.70;57.10
14873;DHT22;7528;48.576;19.122;2023-09-12T20:18:31;24.60;57.50
14873;DHT22;7528;48.576;19.122;2023-09-12T20:23:33;24.50;57.90
14873;DHT22;7528;48.576;19.122;2023-09-12T20:28:38;24.40;58.20
14873;DHT22;7528;48.576;19.122;2023-09-12T20:39:21;24.10;58.60
14873;DHT22;7528;48.576;19.122;2023-09-12T20:44:25;24.00;58.30
14873;DHT22;7528;48.576;19.122;2023-09-12T20:49:28;23.90;58.30
14873;DHT22;7528;48.576;19.122;2023-09-12T20:54:31;23.80;58.70
14873;DHT22;7528;48.576;19.122;2023-09-12T20:59:35;23.70;59.20
14873;DHT22;7528;48.576;19.122;2023-09-12T21:04:38;23.60;59.50
14873;DHT22;7528;48.576;19.122;2023-09-12T21:09:40;23.60;59.70
14873;DHT22;7528;48.576;19.122;2023-09-12T21:14:44;23.50;60.00
14873;DHT22;7528;48.576;19.122;2023-09-12T21:19:47;23.40;60.20
14873;DHT22;7528;48.576;19.122;2023-09-12T21:24:50;23.30;60.60
14873;DHT22;7528;48.576;19.122;2023-09-12T21:29:55;23.20;60.80
14873;DHT22;7528;48.576;19.122;2023-09-12T21:35:09;23.10;61.20
14873;DHT22;7528;48.576;19.122;2023-09-12T21:40:15;23.00;61.60
14873;DHT22;7528;48.576;19.122;2023-09-12T21:45:19;22.90;61.70
14873;DHT22;7528;48.576;19.122;2023-09-12T21:50:22;22.80;61.60
14873;DHT22;7528;48.576;19.122;2023-09-12T21:55:37;22.80;61.80
14873;DHT22;7528;48.576;19.122;2023-09-12T22:00:41;22.70;62.50
14873;DHT22;7528;48.576;19.122;2023-09-12T22:05:44;22.60;62.70
14873;DHT22;7528;48.576;19.122;2023-09-12T22:10:50;22.50;63.10
14873;DHT22;7528;48.576;19.122;2023-09-12T22:15:55;22.40;63.40
14873;DHT22;7528;48.576;19.122;2023-09-12T22:20:57;22.40;63.60
14873;DHT22;7528;48.576;19.122;2023-09-12T22:26:07;22.30;63.80
14873;DHT22;7528;48.576;19.122;2023-09-12T22:31:12;22.20;64.10
14873;DHT22;7528;48.576;19.122;2023-09-12T22:36:15;22.10;64.20
14873;DHT22;7528;48.576;19.122;2023-09-12T22:41:20;22.00;64.40
14873;DHT22;7528;48.576;19.122;2023-09-12T22:46:27;22.00;64.60
14873;DHT22;7528;48.576;19.122;2023-09-12T22:51:29;21.90;64.70
14873;DHT22;7528;48.576;19.122;2023-09-12T22:56:32;21.80;64.80
14873;DHT22;7528;48.576;19.122;2023-09-12T23:01:38;21.70;65.20
14873;DHT22;7528;48.576;19.122;2023-09-12T23:06:40;21.70;65.30
14873;DHT22;7528;48.576;19.122;2023-09-12T23:11:43;21.60;65.50
14873;DHT22;7528;48.576;19.122;2023-09-12T23:16:46;21.50;66.10
14873;DHT22;7528;48.576;19.122;2023-09-12T23:21:49;21.40;65.40
14873;DHT22;7528;48.576;19.122;2023-09-12T23:26:51;21.40;65.90
14873;DHT22;7528;48.576;19.122;2023-09-12T23:32:09;21.30;66.20
14873;DHT22;7528;48.576;19.122;2023-09-12T23:37:12;21.20;66.40
14873;DHT22;7528;48.576;19.122;2023-09-12T23:42:14;21.20;66.40
14873;DHT22;7528;48.576;19.122;2023-09-12T23:47:33;21.10;66.30
14873;DHT22;7528;48.576;19.122;2023-09-12T23:52:36;21.00;66.40
14873;DHT22;7528;48.576;19.122;2023-09-12T23:57:39;21.00;66.70
